createdAt,value
2018-07-14T00:02:56.484Z,17.80
2018-07-14T00:07:59.529Z,17.70
2018-07-14T00:13:02.635Z,17.70
2018-07-14T00:18:05.773Z,17.70
2018-07-14T00:23:09.436Z,17.70
2018-07-14T00:28:12.527Z,17.70
2018-07-14T00:33:15.648Z,17.60
2018-07-14T00:38:18.746Z,17.60
2018-07-14T00:43:21.849Z,17.70
2018-07-14T00:48:24.916Z,17.70
2018-07-14T00:53:28.075Z,17.70
2018-07-14T00:58:31.286Z,17.70
2018-07-14T01:03:34.364Z,17.70
2018-07-14T01:13:41.120Z,17.60
2018-07-14T01:18:44.251Z,17.60
2018-07-14T01:23:47.303Z,17.70
2018-07-14T01:28:50.499Z,17.70
2018-07-14T01:33:53.591Z,17.70
2018-07-14T01:38:56.661Z,17.80
2018-07-14T01:43:59.765Z,17.80
2018-07-14T01:49:02.827Z,17.80
2018-07-14T01:54:05.869Z,17.90
2018-07-14T01:59:08.939Z,17.90
2018-07-14T02:04:12.004Z,17.90
2018-07-14T02:14:17.932Z,18.00
2018-07-14T02:19:20.996Z,18.00
2018-07-14T02:24:24.252Z,18.00
2018-07-14T02:34:30.608Z,17.90
2018-07-14T02:39:34.235Z,17.80
2018-07-14T02:44:37.414Z,17.80
2018-07-14T02:54:43.376Z,17.60
2018-07-14T02:59:46.497Z,17.50
2018-07-14T03:09:52.592Z,17.30
2018-07-14T03:14:55.730Z,17.20
2018-07-14T03:19:58.801Z,17.20
2018-07-14T03:25:02.814Z,17.20
2018-07-14T03:30:05.929Z,17.10
2018-07-14T03:35:08.994Z,17.00
2018-07-14T03:40:12.035Z,16.90
2018-07-14T03:45:15.222Z,17.00
2018-07-14T03:50:18.317Z,16.90
2018-07-14T03:55:22.040Z,17.00
2018-07-14T04:00:25.163Z,16.90
2018-07-14T04:05:28.276Z,17.00
2018-07-14T04:10:31.377Z,17.00
2018-07-14T04:15:34.435Z,17.00
2018-07-14T04:20:37.768Z,17.00
2018-07-14T04:25:40.866Z,17.00
2018-07-14T04:30:43.976Z,16.90
2018-07-14T04:35:47.074Z,16.90
2018-07-14T04:40:50.185Z,16.80
2018-07-14T04:45:53.318Z,16.90
2018-07-14T04:50:57.010Z,16.90
2018-07-14T04:56:00.166Z,17.00
2018-07-14T05:01:03.274Z,17.00
2018-07-14T05:06:06.323Z,17.10
2018-07-14T05:11:09.404Z,17.20
2018-07-14T05:16:12.504Z,17.20
2018-07-14T05:21:15.649Z,17.20
2018-07-14T05:26:18.736Z,17.20
2018-07-14T05:31:21.827Z,17.20
2018-07-14T05:36:24.969Z,17.20
2018-07-14T05:41:28.045Z,17.20
2018-07-14T05:46:31.214Z,17.40
2018-07-14T05:51:34.773Z,17.60
2018-07-14T05:56:37.854Z,17.80
2018-07-14T06:01:41.262Z,18.20
2018-07-14T06:06:44.425Z,18.40
2018-07-14T06:11:47.599Z,18.90
2018-07-14T06:16:50.769Z,19.80
2018-07-14T06:21:53.872Z,20.60
2018-07-14T06:26:57.193Z,21.10
2018-07-14T06:32:00.380Z,21.80
2018-07-14T06:37:03.455Z,22.80
2018-07-14T06:42:06.572Z,22.90
2018-07-14T06:47:09.643Z,23.60
2018-07-14T06:52:12.818Z,23.70
2018-07-14T06:57:15.935Z,24.10
2018-07-14T07:02:19.039Z,23.90
2018-07-14T07:07:22.112Z,24.90
2018-07-14T07:12:25.297Z,25.70
2018-07-14T07:17:28.504Z,25.70
2018-07-14T07:22:31.542Z,26.00
2018-07-14T07:27:34.645Z,26.10
2018-07-14T07:32:37.757Z,26.20
2018-07-14T07:37:40.860Z,26.30
2018-07-14T07:42:44.225Z,26.60
2018-07-14T07:47:47.397Z,26.90
2018-07-14T07:52:50.443Z,27.00
2018-07-14T07:58:56.870Z,27.00
2018-07-14T08:03:59.962Z,27.10
2018-07-14T08:09:03.268Z,27.30
2018-07-14T08:14:21.248Z,27.20
2018-07-14T08:19:24.274Z,27.50
2018-07-14T08:24:27.325Z,27.40
2018-07-14T08:29:30.400Z,27.40
2018-07-14T08:34:33.463Z,27.40
2018-07-14T08:39:36.636Z,26.80
2018-07-14T08:44:39.727Z,27.00
2018-07-14T08:49:42.803Z,27.50
2018-07-14T08:54:46.056Z,27.20
2018-07-14T08:59:49.117Z,27.10
2018-07-14T09:04:52.158Z,26.40
2018-07-14T09:09:55.211Z,26.10
2018-07-14T09:14:58.379Z,25.50
2018-07-14T09:20:01.550Z,25.10
2018-07-14T09:25:04.961Z,25.10
2018-07-14T09:30:08.664Z,24.90
2018-07-14T09:35:11.688Z,24.50
2018-07-14T09:40:14.829Z,24.30
2018-07-14T09:45:18.138Z,24.30
2018-07-14T09:50:21.216Z,24.10
2018-07-14T09:55:24.313Z,23.70
2018-07-14T10:00:34.283Z,23.70
2018-07-14T10:05:37.336Z,23.60
2018-07-14T10:10:40.437Z,23.50
2018-07-14T10:15:43.633Z,23.60
2018-07-14T10:20:46.689Z,23.80
2018-07-14T10:25:50.013Z,23.70
2018-07-14T10:30:52.869Z,23.80
2018-07-14T10:35:55.938Z,23.70
2018-07-14T10:40:58.972Z,23.60
2018-07-14T10:46:02.001Z,23.70
2018-07-14T10:51:05.142Z,23.60
2018-07-14T11:01:12.027Z,23.60
2018-07-14T11:06:15.379Z,23.60
2018-07-14T11:11:18.501Z,23.70
2018-07-14T11:16:21.600Z,23.60
2018-07-14T11:21:24.703Z,23.60
2018-07-14T11:26:27.810Z,23.60
2018-07-14T11:31:30.896Z,23.70
2018-07-14T11:36:33.926Z,23.60
2018-07-14T11:41:37.050Z,23.60
2018-07-14T11:46:40.112Z,23.60
2018-07-14T11:51:43.195Z,23.60
2018-07-14T11:56:46.249Z,23.60
2018-07-14T12:01:49.396Z,23.70
2018-07-14T12:06:52.460Z,23.60
2018-07-14T12:11:55.513Z,23.70
2018-07-14T12:16:58.656Z,23.80
2018-07-14T12:22:01.687Z,23.80
2018-07-14T12:27:04.827Z,23.80
2018-07-14T12:32:07.911Z,23.90
2018-07-14T12:37:10.935Z,24.00
2018-07-14T12:42:14.015Z,23.80
2018-07-14T12:47:17.024Z,23.80
2018-07-14T12:52:20.087Z,23.90
2018-07-14T12:57:24.140Z,23.90
2018-07-14T13:02:27.194Z,24.00
2018-07-14T13:07:30.248Z,24.00
2018-07-14T13:12:33.490Z,24.10
2018-07-14T13:17:36.784Z,24.10
2018-07-14T13:22:39.876Z,24.00
2018-07-14T13:27:43.360Z,23.90
2018-07-14T13:32:46.541Z,23.80
2018-07-14T13:37:49.609Z,23.80
2018-07-14T13:47:55.868Z,24.00
2018-07-14T13:52:59.038Z,24.10
2018-07-14T13:58:02.135Z,23.90
2018-07-14T14:03:05.254Z,23.80
2018-07-14T14:08:08.039Z,23.70
2018-07-14T14:13:11.497Z,23.60
2018-07-14T14:18:14.824Z,23.70
2018-07-14T14:23:17.887Z,23.80
2018-07-14T14:28:20.989Z,23.90
2018-07-14T14:33:24.138Z,24.00
2018-07-14T14:38:27.836Z,23.90
2018-07-14T14:43:30.934Z,24.00
2018-07-14T14:48:34.046Z,24.10
2018-07-14T14:53:37.205Z,24.00
2018-07-14T14:58:40.405Z,23.90
2018-07-14T15:03:43.557Z,23.80
2018-07-14T15:08:48.904Z,23.80
2018-07-14T15:13:52.036Z,23.90
2018-07-14T15:18:55.087Z,23.70
2018-07-14T15:23:58.188Z,23.80
2018-07-14T15:29:01.280Z,23.70
2018-07-14T15:34:04.471Z,23.60
2018-07-14T15:39:08.201Z,23.40
2018-07-14T15:44:11.238Z,23.40
2018-07-14T15:49:14.279Z,23.40
2018-07-14T15:54:17.327Z,23.30
2018-07-14T15:59:20.360Z,23.20
2018-07-14T16:04:23.924Z,23.30
2018-07-14T16:09:27.076Z,23.20
2018-07-14T16:14:31.200Z,23.10
2018-07-14T16:19:34.287Z,23.00
2018-07-14T16:24:39.571Z,23.10
2018-07-14T16:29:42.854Z,23.00
2018-07-14T16:34:45.964Z,22.90
2018-07-14T16:39:49.066Z,22.80
2018-07-14T16:44:52.327Z,22.90
2018-07-14T16:49:56.213Z,22.80
2018-07-14T16:54:59.576Z,22.60
2018-07-14T17:00:02.667Z,22.70
2018-07-14T17:05:05.753Z,22.60
2018-07-14T17:10:08.917Z,22.60
2018-07-14T17:15:12.049Z,22.60
2018-07-14T17:20:15.425Z,22.60
2018-07-14T17:25:21.065Z,22.50
2018-07-14T17:30:24.250Z,22.40
2018-07-14T17:35:27.360Z,22.30
2018-07-14T17:40:30.464Z,22.20
2018-07-14T17:45:34.548Z,22.20
2018-07-14T17:50:37.665Z,22.20
2018-07-14T17:55:40.825Z,22.20
2018-07-14T18:00:43.871Z,22.10
2018-07-14T18:05:47.037Z,22.00
2018-07-14T18:10:50.192Z,21.90
2018-07-14T18:15:53.331Z,21.80
2018-07-14T18:20:56.481Z,21.70
2018-07-14T18:25:59.613Z,21.70
2018-07-14T18:31:02.843Z,21.50
2018-07-14T18:36:06.016Z,21.50
2018-07-14T18:41:09.013Z,21.40
2018-07-14T18:46:12.131Z,21.30
2018-07-14T18:51:15.269Z,21.30
2018-07-14T18:56:18.339Z,21.10
2018-07-14T19:01:21.465Z,21.00
2018-07-14T19:06:24.547Z,20.90
2018-07-14T19:11:27.806Z,20.80
2018-07-14T19:16:31.149Z,20.60
2018-07-14T19:26:37.350Z,20.40
2018-07-14T19:31:40.561Z,20.20
2018-07-14T19:41:47.646Z,20.00
2018-07-14T19:46:50.922Z,19.90
2018-07-14T19:51:54.158Z,19.80
2018-07-14T19:56:57.284Z,19.70
2018-07-14T20:02:02.416Z,19.60
2018-07-14T20:07:05.518Z,19.50
2018-07-14T20:12:09.561Z,19.40
2018-07-14T20:17:12.625Z,19.30
2018-07-14T20:22:15.784Z,19.20
2018-07-14T20:27:18.914Z,19.10
2018-07-14T20:32:22.113Z,19.00
2018-07-14T20:37:25.324Z,18.90
2018-07-14T20:42:28.537Z,18.80
2018-07-14T20:47:31.773Z,18.70
2018-07-14T20:52:35.027Z,18.60
2018-07-14T20:57:38.233Z,18.50
2018-07-14T21:02:41.325Z,18.40
2018-07-14T21:07:44.490Z,18.30
2018-07-14T21:12:54.145Z,18.20
2018-07-14T21:18:09.606Z,18.10
2018-07-14T21:23:14.748Z,18.00
2018-07-14T21:28:18.104Z,17.90
2018-07-14T21:33:21.212Z,17.80
2018-07-14T21:38:24.560Z,17.80
2018-07-14T21:43:27.674Z,17.70
2018-07-14T21:48:30.739Z,17.60
2018-07-14T21:53:33.821Z,17.50
2018-07-14T21:58:36.920Z,17.50
2018-07-14T22:03:40.009Z,17.40
2018-07-14T22:08:43.101Z,17.30
2018-07-14T22:13:46.250Z,17.30
2018-07-14T22:18:49.339Z,17.20
2018-07-14T22:23:52.456Z,17.10
2018-07-14T22:28:55.600Z,17.00
2018-07-14T22:33:58.700Z,17.00
2018-07-14T22:39:01.844Z,16.90
2018-07-14T22:44:04.991Z,16.80
2018-07-14T22:49:08.073Z,16.80
2018-07-14T22:54:11.364Z,16.70
2018-07-14T22:59:14.463Z,16.60
2018-07-14T23:04:17.768Z,16.50
2018-07-14T23:09:20.820Z,16.50
2018-07-14T23:14:23.924Z,16.40
2018-07-14T23:19:27.032Z,16.40
2018-07-14T23:24:30.916Z,16.30
2018-07-14T23:29:34.001Z,16.30
2018-07-14T23:34:37.069Z,16.20
2018-07-14T23:39:40.171Z,16.20
2018-07-14T23:44:43.292Z,16.10
2018-07-14T23:49:46.373Z,16.10
2018-07-14T23:54:49.532Z,16.10
2018-07-14T23:59:52.602Z,16.00
